Bettina K — PBEW — position and weather

sailwx.info

Track history (hours):
 
Tides and Currents Weather Stations Pressure Air Temp Water Temp Dewpoint Dewpoint Depression Visibility Wind Speed Wind Dir Waves Ship Positions

Bettina K

Last reported at 2016-Dec-04 19:33 UTC. Time now 2016-Dec-04 20:23 UTC.
Position N 54°01' E 008°08'.

Length 82 m; draft 5 m.

Type: Cargo ship. MMSI: 244730469.

Date/timePositionNaut miles runAvg speedWind from/ knotsBaromVisibWave heightAir tempDewpointWater temp
2016-Dec-04 19:33N 54°01' E 008°08'1111.4
2016-Dec-04 18:33N 53°59' E 008°27'1111.3
2016-Dec-04 17:34N 53°53' E 008°43'9 9.2
2016-Dec-04 16:34N 53°51' E 008°58'7 6.7
2016-Dec-04 15:34N 53°54' E 009°09'0 0.2
2016-Dec-04 14:34N 53°54' E 009°09'8 7.9
2016-Dec-04 13:33N 53°60' E 009°17'21 6.9
2016-Dec-04 10:29N 54°17' E 009°39'7 7.9
2016-Dec-04 09:34N 54°22' E 009°48'7 7.4
2016-Dec-04 08:34N 54°22' E 010°01'4 4.4
2016-Dec-04 07:34N 54°22' E 010°09'3 2.8
2016-Dec-04 06:34N 54°24' E 010°12'9 9.2
2016-Dec-04 05:34N 54°31' E 010°22'10 9.7
2016-Dec-04 04:34N 54°35' E 010°38'10 9.9
2016-Dec-04 03:34N 54°36' E 010°55'10 9.6
2016-Dec-04 02:33N 54°37' E 011°11'1010.0
2016-Dec-04 01:33N 54°32' E 011°27'1010.4
2016-Dec-04 00:34N 54°28' E 011°43'10 9.8
2016-Dec-03 23:34N 54°27' E 011°60'9 8.8
2016-Dec-03 22:34N 54°31' E 012°12'23 9.8
2016-Dec-03 20:11N 54°47' E 012°42'45 9.6
2016-Dec-03 15:30N 55°03' E 013°56'9 9.2
2016-Dec-03 14:30N 55°08' E 014°09'9 9.6
2016-Dec-03 13:33N 55°15' E 014°19'10 9.7
2016-Dec-03 12:33N 55°22' E 014°30'10 9.6
2016-Dec-03 11:33N 55°28' E 014°43'10 9.3
2016-Dec-03 10:30N 55°33' E 014°58'9 9.1
2016-Dec-03 09:33N 55°37' E 015°12'  
2016-Nov-29 18:33N 59°17' E 017°34'1010.2
2016-Nov-29 17:33N 59°26' E 017°24'10 9.8
2016-Nov-29 16:33N 59°31' E 017°08'  
2016-Nov-26 19:29N 59°30' E 016°50'6 6.4
2016-Nov-26 18:33N 59°32' E 017°01'8 8.2
2016-Nov-26 17:33N 59°28' E 017°15'9 8.8
2016-Nov-26 16:34N 59°22' E 017°28'224 8.2
2016-Nov-25 13:13N 55°45' E 015°47'10 8.9
2016-Nov-25 12:08N 55°40' E 015°33'5 8.9
2016-Nov-25 11:33N 55°37' E 015°25'9 9.4
2016-Nov-25 10:34N 55°33' E 015°10'9 9.2
2016-Nov-25 09:33N 55°29' E 014°56'9 9.4
2016-Nov-25 08:33N 55°24' E 014°42'9 9.6
2016-Nov-25 07:34N 55°17' E 014°30'10 9.9
2016-Nov-25 06:33N 55°09' E 014°18'10 9.8
2016-Nov-25 05:33N 55°02' E 014°07'10 9.8
2016-Nov-25 04:32N 54°58' E 013°50'38 9.7
2016-Nov-25 00:33N 54°45' E 012°48'19 9.4
2016-Nov-24 22:33N 54°34' E 012°22'10 9.7
2016-Nov-24 21:32N 54°26' E 012°11'9 9.6
2016-Nov-24 20:33N 54°25' E 011°55'10 9.9
2016-Nov-24 19:33N 54°27' E 011°39'  
Track history (hours):
 
Tides and Currents Weather Stations Pressure Air Temp Water Temp Dewpoint Dewpoint Depression Visibility Wind Speed Wind Dir Waves Ship Positions

Bettina K

Last reported at 2016-Dec-04 19:33 UTC. Time now 2016-Dec-04 20:23 UTC.
Position N 54°01' E 008°08'.

Length 82 m; draft 5 m.

Type: Cargo ship. MMSI: 244730469.

Date/timePositionNaut miles runAvg speedWind from/ knotsBaromVisibWave heightAir tempDewpointWater temp
2016-Dec-04 19:33N 54°01' E 008°08'1111.4
2016-Dec-04 18:33N 53°59' E 008°27'1111.3
2016-Dec-04 17:34N 53°53' E 008°43'9 9.2
2016-Dec-04 16:34N 53°51' E 008°58'7 6.7
2016-Dec-04 15:34N 53°54' E 009°09'0 0.2
2016-Dec-04 14:34N 53°54' E 009°09'8 7.9
2016-Dec-04 13:33N 53°60' E 009°17'21 6.9
2016-Dec-04 10:29N 54°17' E 009°39'7 7.9
2016-Dec-04 09:34N 54°22' E 009°48'7 7.4
2016-Dec-04 08:34N 54°22' E 010°01'4 4.4
2016-Dec-04 07:34N 54°22' E 010°09'3 2.8
2016-Dec-04 06:34N 54°24' E 010°12'9 9.2
2016-Dec-04 05:34N 54°31' E 010°22'10 9.7
2016-Dec-04 04:34N 54°35' E 010°38'10 9.9
2016-Dec-04 03:34N 54°36' E 010°55'10 9.6
2016-Dec-04 02:33N 54°37' E 011°11'1010.0
2016-Dec-04 01:33N 54°32' E 011°27'1010.4
2016-Dec-04 00:34N 54°28' E 011°43'10 9.8
2016-Dec-03 23:34N 54°27' E 011°60'9 8.8
2016-Dec-03 22:34N 54°31' E 012°12'23 9.8
2016-Dec-03 20:11N 54°47' E 012°42'45 9.6
2016-Dec-03 15:30N 55°03' E 013°56'9 9.2
2016-Dec-03 14:30N 55°08' E 014°09'9 9.6
2016-Dec-03 13:33N 55°15' E 014°19'10 9.7
2016-Dec-03 12:33N 55°22' E 014°30'10 9.6
2016-Dec-03 11:33N 55°28' E 014°43'10 9.3
2016-Dec-03 10:30N 55°33' E 014°58'9 9.1
2016-Dec-03 09:33N 55°37' E 015°12'  
2016-Nov-29 18:33N 59°17' E 017°34'1010.2
2016-Nov-29 17:33N 59°26' E 017°24'10 9.8
2016-Nov-29 16:33N 59°31' E 017°08'  
2016-Nov-26 19:29N 59°30' E 016°50'6 6.4
2016-Nov-26 18:33N 59°32' E 017°01'8 8.2
2016-Nov-26 17:33N 59°28' E 017°15'9 8.8
2016-Nov-26 16:34N 59°22' E 017°28'224 8.2
2016-Nov-25 13:13N 55°45' E 015°47'10 8.9
2016-Nov-25 12:08N 55°40' E 015°33'5 8.9
2016-Nov-25 11:33N 55°37' E 015°25'9 9.4
2016-Nov-25 10:34N 55°33' E 015°10'9 9.2
2016-Nov-25 09:33N 55°29' E 014°56'9 9.4
2016-Nov-25 08:33N 55°24' E 014°42'9 9.6
2016-Nov-25 07:34N 55°17' E 014°30'10 9.9
2016-Nov-25 06:33N 55°09' E 014°18'10 9.8
2016-Nov-25 05:33N 55°02' E 014°07'10 9.8
2016-Nov-25 04:32N 54°58' E 013°50'38 9.7
2016-Nov-25 00:33N 54°45' E 012°48'19 9.4
2016-Nov-24 22:33N 54°34' E 012°22'10 9.7
2016-Nov-24 21:32N 54°26' E 012°11'9 9.6
2016-Nov-24 20:33N 54°25' E 011°55'10 9.9
2016-Nov-24 19:33N 54°27' E 011°39'  

Dump ship's entire track history